| time (UTC) | temp F | wind direction | speed MPH | gust MPH | rain 1hr in | rain 24hr in | rain mn in | humidity % | barometer mb |
| 20260510224516 | 78 | 0.0 | 2.0 | 0.00 | 0.00 | 0.00 | 34 | 1012.8 | |
| 20260510223518 | 79 | 113 | 1.0 | 3.0 | 0.00 | 0.00 | 0.00 | 33 | 1012.9 |
| 20260510222518 | 79 | 135 | 1.0 | 3.0 | 0.00 | 0.00 | 0.00 | 33 | 1012.8 |
| 20260510221517 | 79 | 135 | 1.0 | 3.0 | 0.00 | 0.00 | 0.00 | 32 | 1012.8 |
| 20260510220516 | 79 | 113 | 1.0 | 2.0 | 0.00 | 0.00 | 0.00 | 31 | 1012.8 |
| 20260510215516 | 79 | 0.0 | 1.0 | 0.00 | 0.00 | 0.00 | 31 | 1012.7 | |
| 20260510214536 | 80 | 0.0 | 4.0 | 0.00 | 0.00 | 0.00 | 31 | 1012.7 | |
| 20260510213516 | 80 | 113 | 1.0 | 3.0 | 0.00 | 0.00 | 0.00 | 29 | 1012.7 |
| 20260510212556 | 80 | 0.0 | 2.0 | 0.00 | 0.00 | 0.00 | 29 | 1012.7 | |
| 20260510211516 | 80 | 135 | 1.0 | 4.0 | 0.00 | 0.00 | 0.00 | 27 | 1012.8 |
| 20260510210517 | 80 | 113 | 1.0 | 5.0 | 0.00 | 0.00 | 0.00 | 28 | 1012.8 |
| 20260510205517 | 81 | 225 | 1.0 | 2.0 | 0.00 | 0.00 | 0.00 | 27 | 1012.8 |
| 20260510204516 | 81 | 113 | 1.0 | 3.0 | 0.00 | 0.00 | 0.00 | 28 | 1012.8 |
| 20260510203516 | 81 | 0.0 | 1.0 | 0.00 | 0.00 | 0.00 | 30 | 1012.8 | |
| 20260510202516 | 83 | 225 | 1.0 | 2.0 | 0.00 | 0.00 | 0.00 | 26 | 1012.9 |
| 20260510201516 | 84 | 135 | 1.0 | 4.0 | 0.00 | 0.00 | 0.00 | 25 | 1013.1 |
| 20260510200516 | 85 | 0.0 | 2.0 | 0.00 | 0.00 | 0.00 | 23 | 1013.2 | |
| 20260510195516 | 85 | 248 | 1.0 | 3.0 | 0.00 | 0.00 | 0.00 | 25 | 1013.3 |
| 20260510194516 | 85 | 113 | 1.0 | 3.0 | 0.00 | 0.00 | 0.00 | 26 | 1013.4 |
| 20260510193516 | 87 | 113 | 1.0 | 3.0 | 0.00 | 0.00 | 0.00 | 25 | 1013.5 |
| 20260510192516 | 85 | 0 | 1.0 | 4.0 | 0.00 | 0.00 | 0.00 | 27 | 1013.5 |
| 20260510191516 | 86 | 0.0 | 2.0 | 0.00 | 0.00 | 0.00 | 26 | 1013.5 | |
| 20260510190516 | 85 | 0 | 1.0 | 3.0 | 0.00 | 0.00 | 0.00 | 23 | 1013.6 |
| 20260510185516 | 84 | 135 | 2.0 | 5.0 | 0.00 | 0.00 | 0.00 | 26 | 1013.6 |
| 20260510184516 | 84 | 135 | 1.0 | 4.0 | 0.00 | 0.00 | 0.00 | 25 | 1013.6 |
| 20260510183516 | 85 | 113 | 1.0 | 5.0 | 0.00 | 0.00 | 0.00 | 22 | 1013.7 |
| 20260510182516 | 85 | 0 | 1.0 | 5.0 | 0.00 | 0.00 | 0.00 | 26 | 1013.7 |
| 20260510181516 | 84 | 135 | 1.0 | 6.0 | 0.00 | 0.00 | 0.00 | 26 | 1013.8 |
| 20260510180516 | 83 | 0 | 1.0 | 3.0 | 0.00 | 0.00 | 0.00 | 27 | 1013.9 |
| 20260510175516 | 83 | 338 | 1.0 | 3.0 | 0.00 | 0.00 | 0.00 | 26 | 1014.0 |
| 20260510174536 | 82 | 0.0 | 2.0 | 0.00 | 0.00 | 0.00 | 29 | 1014.1 | |
| 20260510173516 | 82 | 338 | 1.0 | 7.0 | 0.00 | 0.00 | 0.00 | 27 | 1014.1 |
| 20260510172516 | 83 | 338 | 1.0 | 2.0 | 0.00 | 0.00 | 0.00 | 29 | 1014.4 |
| 20260510171516 | 82 | 113 | 2.0 | 4.0 | 0.00 | 0.00 | 0.00 | 32 | 1014.5 |
| 20260510170536 | 83 | 113 | 2.0 | 4.0 | 0.00 | 0.00 | 0.00 | 24 | 1014.6 |
| 20260510165516 | 83 | 135 | 1.0 | 5.0 | 0.00 | 0.00 | 0.00 | 27 | 1014.6 |
| 20260510164516 | 82 | 0.0 | 2.0 | 0.00 | 0.00 | 0.00 | 33 | 1014.5 | |
| 20260510163516 | 81 | 338 | 1.0 | 3.0 | 0.00 | 0.00 | 0.00 | 29 | 1014.5 |
| 20260510162516 | 80 | 315 | 1.0 | 4.0 | 0.00 | 0.00 | 0.00 | 35 | 1014.6 |
| 20260510161536 | 79 | 315 | 2.0 | 4.0 | 0.00 | 0.00 | 0.00 | 32 | 1014.7 |
| 20260510160516 | 79 | 315 | 2.0 | 5.0 | 0.00 | 0.00 | 0.00 | 36 | 1014.7 |
| 20260510155516 | 78 | 0 | 1.0 | 4.0 | 0.00 | 0.00 | 0.00 | 39 | 1014.8 |
| 20260510154516 | 78 | 0 | 1.0 | 6.0 | 0.00 | 0.00 | 0.00 | 39 | 1014.8 |
| 20260510153516 | 78 | 0.0 | 3.0 | 0.00 | 0.00 | 0.00 | 43 | 1014.9 | |
| 20260510152516 | 77 | 113 | 1.0 | 4.0 | 0.00 | 0.00 | 0.00 | 40 | 1015.0 |
| 20260510151516 | 76 | 0.0 | 2.0 | 0.00 | 0.00 | 0.00 | 42 | 1015.0 | |
| 20260510150516 | 76 | 0 | 2.0 | 5.0 | 0.00 | 0.00 | 0.00 | 41 | 1014.9 |
| 20260510145536 | 76 | 0.0 | 2.0 | 0.00 | 0.00 | 0.00 | 41 | 1014.9 | |
| 20260510144516 | 74 | 0.0 | 3.0 | 0.00 | 0.00 | 0.00 | 44 | 1014.8 | |
| 20260510143516 | 73 | 0 | 1.0 | 3.0 | 0.00 | 0.00 | 0.00 | 46 | 1014.9 |
| 20260510142516 | 72 | 0.0 | 3.0 | 0.00 | 0.00 | 0.00 | 46 | 1014.9 | |
| 20260510141516 | 71 | 0.0 | 3.0 | 0.00 | 0.00 | 0.00 | 52 | 1014.9 | |
| 20260510140515 | 70 | 0.0 | 3.0 | 0.00 | 0.00 | 0.00 | 54 | 1014.9 | |
| 20260510135516 | 69 | 0.0 | 2.0 | 0.00 | 0.00 | 0.00 | 66 | 1015.0 | |
| 20260510134516 | 68 | 338 | 1.0 | 2.0 | 0.00 | 0.00 | 0.00 | 68 | 1014.9 |
| 20260510133516 | 67 | 0.0 | 1.0 | 0.00 | 0.00 | 0.00 | 75 | 1014.9 | |
| 20260510132516 | 66 | 0.0 | 2.0 | 0.00 | 0.00 | 0.00 | 75 | 1014.8 | |
| 20260510131516 | 65 | 0.0 | 2.0 | 0.00 | 0.00 | 0.00 | 79 | 1014.7 | |
| 20260510130516 | 64 | 338 | 1.0 | 2.0 | 0.00 | 0.00 | 0.00 | 82 | 1014.6 |
| 20260510125515 | 63 | 0.0 | 2.0 | 0.00 | 0.00 | 0.00 | 86 | 1014.7 | |
| 20260510124515 | 62 | 0.0 | 2.0 | 0.00 | 0.00 | 0.00 | 88 | 1014.7 | |
| 20260510123516 | 61 | 0.0 | 2.0 | 0.00 | 0.00 | 0.00 | 91 | 1014.6 | |
| 20260510122516 | 59 | 0.0 | 2.0 | 0.00 | 0.00 | 0.00 | 95 | 1014.5 | |
| 20260510121516 | 58 | 0.0 | 3.0 | 0.00 | 0.00 | 0.00 | 96 | 1014.4 | |
| 20260510120516 | 58 | 0.0 | 0.0 | 0.00 | 0.00 | 0.00 | 96 | 1014.2 | |
| 20260510115515 | 56 | 0.0 | 1.0 | 0.00 | 0.00 | 0.00 | 96 | 1014.1 | |
| 20260510114516 | 55 | 0.0 | 0.0 | 0.00 | 0.00 | 0.00 | 95 | 1013.9 | |
| 20260510113516 | 54 | 0.0 | 0.0 | 0.00 | 0.00 | 0.00 | 95 | 1013.7 | |
| 20260510112516 | 54 | 0.0 | 0.0 | 0.00 | 0.00 | 0.00 | 95 | 1013.5 | |
| 20260510111516 | 54 | 0.0 | 0.0 | 0.00 | 0.00 | 0.00 | 95 | 1013.4 | |
| 20260510110515 | 53 | 0.0 | 0.0 | 0.00 | 0.00 | 0.00 | 95 | 1013.3 | |
| 20260510105515 | 53 | 0.0 | 0.0 | 0.00 | 0.00 | 0.00 | 94 | 1013.0 | |
| 20260510104536 | 53 | 0.0 | 0.0 | 0.00 | 0.00 | 0.00 | 94 | 1012.9 | |
| 20260510103515 | 53 | 0.0 | 0.0 | 0.00 | 0.00 | 0.00 | 94 | 1012.7 | |
| 20260510102516 | 53 | 0.0 | 0.0 | 0.00 | 0.00 | 0.00 | 94 | 1012.6 | |
| 20260510101515 | 54 | 0.0 | 0.0 | 0.00 | 0.00 | 0.00 | 94 | 1012.5 | |
| 20260510100515 | 54 | 0.0 | 0.0 | 0.00 | 0.00 | 0.00 | 94 | 1012.2 | |
| 20260510095515 | 54 | 0.0 | 0.0 | 0.00 | 0.00 | 0.00 | 94 | 1012.1 | |
| 20260510094516 | 55 | 0.0 | 0.0 | 0.00 | 0.00 | 0.00 | 94 | 1012.0 | |
| 20260510093516 | 55 | 0.0 | 1.0 | 0.00 | 0.00 | 0.00 | 95 | 1011.9 | |
| 20260510092520 | 55 | 0.0 | 1.0 | 0.00 | 0.00 | 0.00 | 94 | 1011.8 | |
| 20260510091538 | 55 | 0.0 | 0.0 | 0.00 | 0.00 | 0.00 | 94 | 1011.8 | |
| 20260510090517 | 55 | 0.0 | 0.0 | 0.00 | 0.00 | 0.00 | 94 | 1011.7 | |
| 20260510085517 | 55 | 0.0 | 0.0 | 0.00 | 0.00 | 0.00 | 94 | 1011.6 | |
| 20260510084517 | 55 | 0.0 | 0.0 | 0.00 | 0.00 | 0.00 | 94 | 1011.6 | |
| 20260510083517 | 55 | 0.0 | 0.0 | 0.00 | 0.00 | 0.00 | 94 | 1011.5 | |
| 20260510082538 | 56 | 0.0 | 0.0 | 0.00 | 0.00 | 0.00 | 94 | 1011.5 | |
| 20260510081537 | 56 | 0.0 | 0.0 | 0.00 | 0.00 | 0.00 | 93 | 1011.3 | |
| 20260510080517 | 56 | 0.0 | 0.0 | 0.00 | 0.00 | 0.00 | 93 | 1011.1 | |
| 20260510075538 | 56 | 135 | 1.0 | 1.0 | 0.00 | 0.00 | 0.00 | 93 | 1011.2 |
| 20260510074537 | 56 | 0.0 | 0.0 | 0.00 | 0.00 | 0.00 | 93 | 1011.1 | |
| 20260510073517 | 57 | 0.0 | 0.0 | 0.00 | 0.00 | 0.00 | 93 | 1010.9 | |
| 20260510072517 | 57 | 0.0 | 0.0 | 0.00 | 0.00 | 0.00 | 93 | 1011.0 | |
| 20260510071517 | 57 | 0.0 | 0.0 | 0.00 | 0.00 | 0.00 | 93 | 1010.8 | |
| 20260510070517 | 57 | 0.0 | 0.0 | 0.00 | 0.00 | 0.00 | 93 | 1010.7 | |
| 20260510065517 | 58 | 0.0 | 1.0 | 0.00 | 0.00 | 0.00 | 93 | 1010.7 | |
| 20260510064517 | 58 | 0.0 | 0.0 | 0.00 | 0.00 | 0.00 | 93 | 1010.7 | |
| 20260510063517 | 58 | 0.0 | 0.0 | 0.00 | 0.00 | 0.00 | 93 | 1010.7 | |
| 20260510062537 | 58 | 0.0 | 0.0 | 0.00 | 0.00 | 0.00 | 93 | 1010.6 | |
| 20260510061517 | 58 | 0.0 | 0.0 | 0.00 | 0.00 | 0.00 | 93 | 1010.7 | |
| 20260510060517 | 59 | 0.0 | 1.0 | 0.00 | 0.00 | 0.00 | 93 | 1010.9 | |
| 20260510055517 | 58 | 0.0 | 0.0 | 0.00 | 0.00 | 0.00 | 93 | 1011.0 | |
| 20260510054517 | 58 | 0.0 | 0.0 | 0.00 | 0.00 | 0.00 | 92 | 1011.0 | |
| 20260510053517 | 59 | 0.0 | 0.0 | 0.00 | 0.00 | 0.00 | 92 | 1011.0 | |
| 20260510052517 | 59 | 0.0 | 0.0 | 0.00 | 0.00 | 0.00 | 91 | 1011.0 | |
| 20260510051517 | 59 | 0.0 | 0.0 | 0.00 | 0.00 | 0.00 | 91 | 1011.0 | |
| 20260510050517 | 60 | 0.0 | 0.0 | 0.00 | 0.00 | 0.00 | 91 | 1011.0 | |
| 20260510045517 | 60 | 0.0 | 0.0 | 0.00 | 0.00 | 0.00 | 91 | 1011.2 | |
| 20260510044517 | 60 | 0.0 | 0.0 | 0.00 | 0.00 | 0.00 | 91 | 1011.1 | |
| 20260510043517 | 60 | 0.0 | 0.0 | 0.00 | 0.00 | 0.00 | 91 | 1011.0 | |
| 20260510042537 | 60 | 0.0 | 0.0 | 0.00 | 0.00 | 0.00 | 91 | 1011.0 | |
| 20260510041517 | 60 | 0.0 | 0.0 | 0.00 | 0.00 | 0.00 | 91 | 1011.1 | |
| 20260510040518 | 60 | 0.0 | 0.0 | 0.00 | 0.00 | 0.00 | 90 | 1011.3 | |
| 20260510035517 | 61 | 0.0 | 0.0 | 0.00 | 0.00 | 0.00 | 90 | 1011.2 | |
| 20260510034517 | 60 | 0.0 | 0.0 | 0.00 | 0.00 | 0.00 | 89 | 1011.1 | |
| 20260510033517 | 61 | 0.0 | 0.0 | 0.00 | 0.00 | 0.00 | 89 | 1011.1 | |
| 20260510032517 | 61 | 0.0 | 0.0 | 0.00 | 0.00 | 0.00 | 89 | 1011.2 | |
| 20260510031557 | 61 | 0.0 | 0.0 | 0.00 | 0.00 | 0.00 | 89 | 1011.1 | |
| 20260510030517 | 61 | 0.0 | 0.0 | 0.00 | 0.00 | 0.00 | 88 | 1011.1 | |
| 20260510025517 | 62 | 0.0 | 0.0 | 0.00 | 0.00 | 0.00 | 88 | 1011.1 | |
| 20260510024518 | 62 | 0.0 | 0.0 | 0.00 | 0.00 | 0.00 | 88 | 1011.0 | |
| 20260510023517 | 62 | 0.0 | 0.0 | 0.00 | 0.00 | 0.00 | 88 | 1010.9 | |
| 20260510022517 | 62 | 0.0 | 0.0 | 0.00 | 0.00 | 0.00 | 88 | 1010.9 | |
| 20260510021517 | 62 | 0.0 | 0.0 | 0.00 | 0.00 | 0.00 | 87 | 1010.8 | |
| 20260510020537 | 63 | 0.0 | 0.0 | 0.00 | 0.00 | 0.00 | 87 | 1010.7 | |
| 20260510015517 | 63 | 0.0 | 0.0 | 0.00 | 0.00 | 0.00 | 86 | 1010.6 | |
| 20260510014517 | 63 | 0.0 | 0.0 | 0.00 | 0.00 | 0.00 | 84 | 1010.4 | |
| 20260510013517 | 64 | 0.0 | 0.0 | 0.00 | 0.00 | 0.00 | 83 | 1010.3 | |
| 20260510012517 | 65 | 0.0 | 0.0 | 0.00 | 0.00 | 0.00 | 82 | 1010.2 | |
| 20260510011517 | 66 | 0.0 | 0.0 | 0.00 | 0.00 | 0.00 | 80 | 1010.1 | |
| 20260510010516 | 67 | 0.0 | 0.0 | 0.00 | 0.00 | 0.00 | 78 | 1009.8 | |
| 20260510005517 | 67 | 0.0 | 1.0 | 0.00 | 0.00 | 0.00 | 78 | 1009.7 | |
| 20260510004517 | 67 | 0.0 | 1.0 | 0.00 | 0.00 | 0.00 | 78 | 1009.6 | |
| 20260510003517 | 67 | 0.0 | 0.0 | 0.00 | 0.00 | 0.00 | 76 | 1009.4 | |
| 20260510002517 | 68 | 0.0 | 0.0 | 0.00 | 0.00 | 0.00 | 75 | 1009.1 | |
| 20260510001516 | 69 | 0.0 | 0.0 | 0.00 | 0.00 | 0.00 | 74 | 1009.1 | |
| 20260510000516 | 69 | 0.0 | 1.0 | 0.00 | 0.00 | 0.00 | 73 | 1008.9 | |
| 20260509235516 | 69 | 0.0 | 2.0 | 0.00 | 0.00 | 0.00 | 72 | 1008.7 | |
| 20260509234536 | 70 | 248 | 1.0 | 3.0 | 0.00 | 0.00 | 0.00 | 72 | 1008.6 |
| 20260509233516 | 70 | 113 | 1.0 | 2.0 | 0.00 | 0.00 | 0.00 | 71 | 1008.7 |
| 20260509232517 | 70 | 248 | 1.0 | 2.0 | 0.00 | 0.00 | 0.00 | 70 | 1008.6 |
| 20260509231517 | 71 | 248 | 1.0 | 2.0 | 0.00 | 0.00 | 0.00 | 70 | 1008.7 |
| 20260509230537 | 71 | 0.0 | 2.0 | 0.00 | 0.00 | 0.00 | 70 | 1008.6 | |
| 20260509225516 | 71 | 248 | 1.0 | 3.0 | 0.00 | 0.00 | 0.00 | 68 | 1008.6 |